x

Matinicus Rock, Me (mism1) Weather Station

12:00am - Wed 1st Apr 2015 All times are EDT. -4 hours from GMT.

  • Wind
    17mph, 18mph gusts
  • Air Temp 35°f
  • Sea Pressure 1008.2mb
  • Matinicus Rock, Me
  • Matinicus Rock, Me

More Historic Weather Station data

Upgrade to MSW Pro to gain access to the past 30 days of data for over 8000 Wavebouys and Weather Stations around the globe.

Join Pro

Comparision Forecast

View Surf forecast
   
Wed 04/01 12:00am 17 18 mph 1008.2mb 35f
Tue 03/31 11:00pm 15 17 mph 1008.2mb 37f
10:00pm 6
mph
1007.9mb 37f
9:00pm 7
mph
1007.5mb 38f
8:00pm 6
mph
1006.9mb 38f
7:00pm 13
mph
1005.9mb 38f
6:00pm 16 18 mph 1004.8mb 38f
5:00pm 17 18 mph 1004.2mb 38f
4:00pm 15 16 mph 1003.9mb 38f
3:00pm 18 20 mph 1003.7mb 37f
2:00pm 22 23 mph 1003.8mb 37f
1:00pm 21 22 mph 1004.1mb 37f
12:00pm 22 24 mph 1004mb 37f
11:00am 23 26 mph 1004mb 37f
10:00am 24 25 mph 1003.9mb 36f
9:00am 28 31 mph 1003.3mb 36f
8:00am 28 31 mph 1002.9mb 36f
7:00am 24 28 mph 1002.5mb 37f
6:00am 22 24 mph 1002.1mb 37f
5:00am 25 28 mph 1001.6mb 37f
4:00am 23 25 mph 1001.5mb 37f
3:00am 24 26 mph 1001.6mb 37f
2:00am 25 28 mph 1002.1mb 38f
1:00am 23 24 mph 1002.5mb 38f
12:00am 17 18 mph 1003.1mb 39f
Mon 03/30 11:00pm 22 23 mph 1003.5mb 39f
10:00pm 18 20 mph 1003.9mb 39f
9:00pm 17 20 mph 1004.3mb 38f
8:00pm 21 23 mph 1004.5mb 38f
7:00pm 24 26 mph 1004.8mb 37f
6:00pm 29 31 mph 1005.2mb 37f
5:00pm 32 34 mph 1005.4mb 37f
4:00pm 37 40 mph 1005.7mb 37f
3:00pm 37 40 mph 1006.3mb 37f
2:00pm 37 41 mph 1007.3mb 37f
1:00pm 38 41 mph 1008.3mb 36f
12:00pm 36 39 mph 1009.3mb 38f
11:00am 33 37 mph 1010mb 38f
10:00am 31 34 mph 1011.1mb 37f
9:00am 30 33 mph 1011.9mb 37f
8:00am 28 30 mph 1012.5mb 37f
7:00am 25 26 mph 1013.1mb 37f
6:00am 26 29 mph 1013.6mb 37f
5:00am 24 28 mph 1014.4mb 37f
4:00am 25 28 mph 1015.3mb 36f
3:00am 22 24 mph 1015.4mb 36f
2:00am 29 30 mph 1016.5mb 36f
1:00am 25 29 mph 1016.6mb 36f
12:00am 23 25 mph 1017.5mb 36f
Sun 03/29 11:00pm 22 23 mph 1018.4mb 35f
10:00pm 18 21 mph 1018.5mb 35f
9:00pm 18 20 mph 1018.9mb 35f
8:00pm 17 20 mph 1018.8mb 35f
7:00pm 18 20 mph 1018.5mb 34f
6:00pm 18 21 mph 1018.5mb 33f
5:00pm 15 17 mph 1018.5mb 33f
4:00pm 15 17 mph 1018.9mb 32f
3:00pm 15 16 mph 1019.2mb 31f
2:00pm 13 17 mph 1020mb 31f
1:00pm 8 10 mph 1020.5mb 29f
12:00pm 7 8 mph 1020.9mb 29f
11:00am 10 11 mph 1021.3mb 28f
10:00am 10 13 mph 1021.3mb 28f
9:00am 16 18 mph 1020.7mb 26f
8:00am 17 18 mph 1019.9mb 27f
7:00am 17 18 mph 1019.1mb 27f
6:00am 20 21 mph 1017.8mb 27f
5:00am 20 22 mph 1017mb 28f
4:00am 21 23 mph 1015.9mb 29f
3:00am 24 28 mph 1015.4mb 30f
2:00am 26 29 mph 1015mb 31f
1:00am 28 30 mph 1014.2mb 32f
12:00am 28 31 mph 1013.7mb 33f
Sat 03/28 11:00pm 18 21 mph 1013.1mb 35f
10:00pm 14 15 mph 1012.2mb 35f
9:00pm 9
mph
1011.2mb 35f
8:00pm 10 11 mph 1010mb 34f
7:00pm 9 10 mph 1008.8mb 33f
6:00pm 15 17 mph 1008.2mb 32f
5:00pm 24 28 mph 1007.1mb 30f
4:00pm 30 32 mph 1007.2mb 30f
3:00pm 30 34 mph 1007.3mb 31f
2:00pm 29 34 mph 1006.7mb 32f
1:00pm 28 30 mph 1007.2mb 32f
12:00pm 29 32 mph 1006.5mb 33f
11:00am 22 28 mph 1007.9mb 33f
10:00am 21 24 mph 1008.1mb 32f
9:00am 26 29 mph 1007.8mb 33f
8:00am 25 29 mph 1007.9mb 33f
7:00am 24 29 mph 1007.4mb 34f
6:00am 23 24 mph 1007.3mb 35f